Meteo Giornale » Osservazioni meteo Italia » Cagliari-Elmas

ore: 10:50 - Osservazioni Meteo Cagliari-Elmas
Lat. 39° 15' N Lon. 9° 4' E Alt. 4 metri s.l.m.

nuvoloso Europe/Rome

22 °C

Nuvoloso

Temp. 24 Ore

17 °C

24 °C

Nord/NOvest

27.8 Km/h

Dew point 10 °C

Umidità 46 %

Visibilità  10 Km

Il sole sorge alle ore 07:08

Il sole tramonta alle ore 19:25

Data e Ora Cielo e Fenomeni T °C DP °C Um. % Pres. hPa Vis. km Vento km/h
Oggi h: 10:50 nuvoloso Nuvoloso 22 10 46 1018 10 N/NO 27.8
Oggi h: 10:20 poco_nuvoloso Poco Nuvoloso 21 11 52 1018 10 NO 18.5
Oggi h: 09:50 poco_nuvoloso Poco Nuvoloso 20 11 56 1018 10 N 13
Oggi h: 09:20 poco_nuvoloso Poco Nuvoloso 20 10 52 1018 10 N/NO 13
Oggi h: 08:50 poco_nuvoloso Poco Nuvoloso 18 11 63 1017 10 N/NO 9.3
Oggi h: 08:20 nuvoloso Nuvoloso 18 11 63 1017 10 N 3.7
Oggi h: 07:50 nuvoloso Nuvoloso 17 10 63 1017 10 N 3.7
Oggi h: 07:20 nuvoloso Nuvoloso 17 10 63 1017 10 N 5.5
Oggi h: 06:50 nuvoloso Nuvoloso 17 10 63 1017 10 N/NO 9.3
Oggi h: 06:20 nuvoloso Nuvoloso 18 10 59 1016 10 NO 18.5
Oggi h: 05:50 poco_nuvoloso Poco Nuvoloso 18 10 59 1016 10 NO 14.8
Oggi h: 05:20 poco_nuvoloso Poco Nuvoloso 17 10 63 1016 10 N/NO 14.8
Oggi h: 04:50 sereno Sereno 18 9 55 1016 10 N/NO 20.3
Oggi h: 04:20 sereno Sereno 18 9 55 1016 10 NO 25.9
Oggi h: 03:50 sereno Sereno 19 9 52 1016 10 NO 25.9
Oggi h: 03:20 sereno Sereno 19 9 52 1016 10 NO 25.9
Oggi h: 02:50 sereno Sereno 19 9 52 1016 10 NO 27.8
Oggi h: 02:20 sereno Sereno 19 9 52 1016 10 NO 27.8
Oggi h: 01:50 poco_nuvoloso Poco Nuvoloso 19 9 52 1016 10 NO 27.8
Oggi h: 01:20 poco_nuvoloso Poco Nuvoloso 19 9 52 1016 10 NO 25.9
Oggi h: 00:50 poco_nuvoloso Poco Nuvoloso 19 9 52 1016 10 NO 27.8
Oggi h: 00:20 poco_nuvoloso Poco Nuvoloso 19 9 52 1016 10 NO 25.9
Ieri h: 23:50 nuvoloso Nuvoloso 19 10 55 1016 10 NO 22.2
Ieri h: 23:20 nuvoloso Nuvoloso 19 10 55 1017 10 NO 24
Ieri h: 22:50 poco_nuvoloso Poco Nuvoloso 19 10 55 1017 10 NO 20.3
Ieri h: 22:20 poco_nuvoloso Poco Nuvoloso 19 10 55 1017 10 NO 20.3
Ieri h: 21:50 poco_nuvoloso Poco Nuvoloso 19 10 55 1017 10 O/NO 22.2
Ieri h: 21:20 poco_nuvoloso Poco Nuvoloso 20 10 52 1017 10 O/NO 24
Ieri h: 20:50 poco_nuvoloso Poco Nuvoloso 20 10 52 1017 10 O/NO 18.5
Ieri h: 20:20 poco_nuvoloso Poco Nuvoloso 20 10 52 1017 10 O/NO 22.2
Ieri h: 19:50 poco_nuvoloso Poco Nuvoloso 20 10 52 1016 10 O/NO 20.3
Ieri h: 19:20 poco_nuvoloso Poco Nuvoloso 21 9 46 1016 10 NO 27.8
Ieri h: 18:50 poco_nuvoloso Poco Nuvoloso 21 9 46 1016 10 NO 25.9
Ieri h: 18:20 poco_nuvoloso Poco Nuvoloso 22 8 40 1016 10 NO 29.6
Ieri h: 17:50 nuvoloso Nuvoloso 22 8 40 1016 10 NO 31.5
Ieri h: 17:20 nuvoloso Nuvoloso 22 9 43 1016 10 NO 27.8
Ieri h: 16:20 nuvoloso Nuvoloso 23 9 40 1016 10 NO 27.8
Ieri h: 15:50 poco_nuvoloso Poco Nuvoloso 24 7 33 1016 10 NO 31.5
Ieri h: 15:20 poco_nuvoloso Poco Nuvoloso 24 8 35 1016 10 N/NO 29.6
Ieri h: 14:50 poco_nuvoloso Poco Nuvoloso 24 9 38 1016 10 NO 29.6
Ieri h: 14:20 poco_nuvoloso Poco Nuvoloso 24 9 38 1016 10 NO 29.6
Ieri h: 13:50 poco_nuvoloso Poco Nuvoloso 24 9 38 1016 10 N/NO 25.9
Ieri h: 13:20 poco_nuvoloso Poco Nuvoloso 24 9 38 1016 10 N/NO 35.2
Ieri h: 12:50 poco_nuvoloso Poco Nuvoloso 23 9 40 1016 10 N/NO 33.3
Ieri h: 12:20 poco_nuvoloso Poco Nuvoloso 23 9 40 1016 10 N/NO 33.3
Ieri h: 11:50 poco_nuvoloso Poco Nuvoloso 23 10 43 1016 10 N/NO 35.2